Terminal Aerodrome Forecast
Issued by NWS Austin/San Antonio, TX

Current Version | Previous Version | Text Only | Print | Product List | Glossary Off
Versions: 1 2 3 4 5 6 7 8 9 10 11 12

618
FTUS44 KEWX 060533
TAFSAT
TAF
KSAT 060533Z 0606/0712 15010KT P6SM OVC070
     FM060900 30005KT P6SM OVC050
      TEMPO 0609/0611 -SHRA
     FM061500 33015G25KT P6SM FEW050
     FM070100 35005KT P6SM SKC=

USA.gov is the U.S. government's official web portal to all federal, state and local government web resources and services.